Time;durP1;ratioP1;P1;durP2;ratioP2;P2;SDS_P1;SDS_P2;PMS_P1;PMS_P2;Temp;Humidity;BMP_temperature;BMP_pressure;BME280_temperature;BME280_humidity;BME280_pressure;Samples;Min_cycle;Max_cycle;Signal;HPM_P1;HPM_P2
2023/11/08 00:01:10;;;;;;;23;14.3;;;;;;;6.35;85.33;;;;;
2023/11/08 00:11:10;;;;;;;20.9;13.4;;;;;;;6.4;85.46;;;;;
2023/11/08 00:22:11;;;;;;;20.9;13.4;;;;;;;6.47;85.48;;;;;
2023/11/08 00:33:10;;;;;;;20.9;13.4;;;;;;;6.52;85.78;;;;;
2023/11/08 00:44:10;;;;;;;20.4;12.4;;;;;;;6.68;86.02;;;;;
2023/11/08 00:54:11;;;;;;;20.4;12.4;;;;;;;6.79;86.06;;;;;
2023/11/08 01:05:10;;;;;;;20.4;12.4;;;;;;;7.07;85.95;;;;;
2023/11/08 01:15:11;;;;;;;24;11.8;;;;;;;7.15;85.94;;;;;
2023/11/08 01:25:12;;;;;;;24;11.8;;;;;;;7.33;85.96;;;;;
2023/11/08 01:36:10;;;;;;;24;11.8;;;;;;;7.48;86.11;;;;;
2023/11/08 01:46:11;;;;;;;16.7;9.3;;;;;;;7.4;85.68;;;;;
2023/11/08 01:56:10;;;;;;;16.7;9.3;;;;;;;7.36;85.73;;;;;
2023/11/08 02:06:10;;;;;;;16.7;9.3;;;;;;;7.34;85.82;;;;;
2023/11/08 02:16:11;;;;;;;17.4;10.4;;;;;;;7.38;85.45;;;;;
2023/11/08 02:27:10;;;;;;;17.4;10.4;;;;;;;7.33;85.55;;;;;
2023/11/08 02:38:11;;;;;;;12.8;8;;;;;;;7.46;85.43;;;;;
2023/11/08 02:48:10;;;;;;;12.8;8;;;;;;;7.54;85.26;;;;;
2023/11/08 02:58:10;;;;;;;12.8;8;;;;;;;7.51;87.32;;;;;
2023/11/08 03:09:10;;;;;;;17.3;8.9;;;;;;;7.74;87.24;;;;;
2023/11/08 03:19:10;;;;;;;17.3;8.9;;;;;;;8.03;86.27;;;;;
2023/11/08 03:30:10;;;;;;;17.3;8.9;;;;;;;7.81;85.78;;;;;
2023/11/08 03:40:11;;;;;;;20.5;11.5;;;;;;;7.82;84.91;;;;;
2023/11/08 03:51:11;;;;;;;20.5;11.5;;;;;;;7.88;86.45;;;;;
2023/11/08 04:01:10;;;;;;;20.5;11.5;;;;;;;8.07;85.77;;;;;
2023/11/08 04:12:10;;;;;;;13.5;7.3;;;;;;;8.28;85.38;;;;;
2023/11/08 04:23:10;;;;;;;13.5;7.3;;;;;;;8.41;84.77;;;;;
2023/11/08 04:33:10;;;;;;;13.5;7.3;;;;;;;8.44;84.62;;;;;
2023/11/08 04:43:10;;;;;;;11;6.6;;;;;;;8.51;84.46;;;;;
2023/11/08 04:53:11;;;;;;;11;6.6;;;;;;;8.49;84.22;;;;;
2023/11/08 05:25:10;;;;;;;13.6;7.8;;;;;;;8.53;83.81;;;;;
2023/11/08 05:36:10;;;;;;;13.6;7.8;;;;;;;8.44;83.89;;;;;
2023/11/08 05:46:11;;;;;;;13.6;8.2;;;;;;;8.53;83.85;;;;;
2023/11/08 05:56:10;;;;;;;13.6;8.2;;;;;;;8.64;83.57;;;;;
2023/11/08 06:07:10;;;;;;;16;8.5;;;;;;;8.47;83.96;;;;;
2023/11/08 06:18:10;;;;;;;16;8.5;;;;;;;8.46;84.36;;;;;
2023/11/08 06:29:10;;;;;;;16;8.5;;;;;;;8.53;84.06;;;;;
2023/11/08 06:39:14;;;;;;;17.2;11.3;;;;;;;8.4;84.17;;;;;
2023/11/08 06:49:10;;;;;;;17.2;11.3;;;;;;;8.57;84.05;;;;;
2023/11/08 06:59:10;;;;;;;17.2;11.3;;;;;;;8.53;84.43;;;;;
2023/11/08 07:10:11;;;;;;;13.6;7.5;;;;;;;8.65;84.53;;;;;
2023/11/08 07:21:10;;;;;;;13.6;7.5;;;;;;;8.88;84.02;;;;;
2023/11/08 07:32:13;;;;;;;13.6;7.5;;;;;;;8.86;83.97;;;;;
2023/11/08 07:42:11;;;;;;;8.8;5.2;;;;;;;8.68;84.68;;;;;
2023/11/08 07:53:10;;;;;;;8.8;5.2;;;;;;;8.79;84.83;;;;;
2023/11/08 08:03:13;;;;;;;8.8;5.2;;;;;;;8.86;84.65;;;;;
2023/11/08 08:14:10;;;;;;;10.5;5.9;;;;;;;8.99;84.1;;;;;
2023/11/08 08:24:10;;;;;;;10.5;5.9;;;;;;;8.74;83.96;;;;;
2023/11/08 08:34:10;;;;;;;10.5;5.9;;;;;;;8.76;84.2;;;;;
2023/11/08 08:45:10;;;;;;;7.9;3.7;;;;;;;8.62;84.52;;;;;
2023/11/08 08:56:10;;;;;;;7.9;3.7;;;;;;;8.56;84.62;;;;;
2023/11/08 09:06:10;;;;;;;7.9;3.7;;;;;;;8.63;82.52;;;;;
2023/11/08 09:16:10;;;;;;;7.3;4;;;;;;;8.79;81.09;;;;;
2023/11/08 09:27:11;;;;;;;7.3;4;;;;;;;9.42;81.53;;;;;
2023/11/08 09:37:11;;;;;;;5.2;2.8;;;;;;;9.36;80.2;;;;;
2023/11/08 09:48:10;;;;;;;5.2;2.8;;;;;;;9.66;80.12;;;;;
2023/11/08 09:59:10;;;;;;;5.2;2.8;;;;;;;9.92;79.22;;;;;
2023/11/08 10:10:10;;;;;;;6.1;3.1;;;;;;;10.19;78.93;;;;;
2023/11/08 10:21:10;;;;;;;6.1;3.1;;;;;;;10.38;78.38;;;;;
2023/11/08 10:31:10;;;;;;;6.1;3.1;;;;;;;10.91;74.71;;;;;
2023/11/08 10:41:10;;;;;;;7.8;4.4;;;;;;;10.69;73.54;;;;;
2023/11/08 10:52:11;;;;;;;7.8;4.4;;;;;;;10.92;71.97;;;;;
2023/11/08 11:03:10;;;;;;;7.8;4.4;;;;;;;11;71.21;;;;;
2023/11/08 11:13:11;;;;;;;6.6;3.8;;;;;;;10.84;68.7;;;;;
2023/11/08 11:24:10;;;;;;;6.6;3.8;;;;;;;11.49;68.56;;;;;
2023/11/08 11:35:10;;;;;;;6.6;3.8;;;;;;;11.85;65.74;;;;;
2023/11/08 11:45:11;;;;;;;5;2.6;;;;;;;11.74;64.76;;;;;
2023/11/08 11:56:10;;;;;;;5;2.6;;;;;;;11.63;63.55;;;;;
2023/11/08 12:07:10;;;;;;;5.7;2.6;;;;;;;11.81;62.24;;;;;
2023/11/08 12:17:10;;;;;;;5.7;2.6;;;;;;;12.05;60.76;;;;;
2023/11/08 12:27:10;;;;;;;5.7;2.6;;;;;;;12.03;58.67;;;;;
2023/11/08 12:38:11;;;;;;;4.3;2;;;;;;;12.54;58.52;;;;;
2023/11/08 12:49:10;;;;;;;4.3;2;;;;;;;12.12;58.69;;;;;
2023/11/08 12:59:10;;;;;;;4.3;2;;;;;;;12.18;59.62;;;;;
2023/11/08 13:09:10;;;;;;;4.6;2.3;;;;;;;12.14;61.23;;;;;
2023/11/08 13:20:13;;;;;;;4.6;2.3;;;;;;;11.46;62.29;;;;;
2023/11/08 13:30:12;;;;;;;4.6;2.3;;;;;;;11.31;62.43;;;;;
2023/11/08 13:40:10;;;;;;;5.5;2.1;;;;;;;11.03;63.31;;;;;
2023/11/08 13:50:12;;;;;;;5.5;2.1;;;;;;;10.56;65.53;;;;;
2023/11/08 14:00:11;;;;;;;5.5;2.1;;;;;;;10.21;70.57;;;;;
2023/11/08 14:11:10;;;;;;;4.4;1.7;;;;;;;9.87;73.87;;;;;
2023/11/08 14:21:11;;;;;;;4.4;1.7;;;;;;;9.6;74.98;;;;;
2023/11/08 14:32:10;;;;;;;4.4;1.7;;;;;;;9.2;76.04;;;;;
2023/11/08 14:42:11;;;;;;;5.8;2.2;;;;;;;9.09;77.06;;;;;
2023/11/08 14:52:10;;;;;;;5.8;2.2;;;;;;;8.84;78.68;;;;;
2023/11/08 15:02:10;;;;;;;5.8;2.2;;;;;;;8.83;80.42;;;;;
2023/11/08 15:13:10;;;;;;;8.4;3.7;;;;;;;8.78;80.78;;;;;
2023/11/08 15:23:10;;;;;;;8.4;3.7;;;;;;;8.78;80.55;;;;;
2023/11/08 15:33:10;;;;;;;8.4;3.7;;;;;;;8.72;80.82;;;;;
2023/11/08 15:44:10;;;;;;;7.1;3.3;;;;;;;8.64;80.68;;;;;
2023/11/08 15:55:12;;;;;;;7.1;3.3;;;;;;;8.76;78.76;;;;;
2023/11/08 16:06:10;;;;;;;7.1;3.3;;;;;;;8.72;76.76;;;;;
2023/11/08 16:17:10;;;;;;;7.7;4;;;;;;;8.73;76.68;;;;;
2023/11/08 16:27:10;;;;;;;7.7;4;;;;;;;8.47;75.93;;;;;
2023/11/08 16:37:10;;;;;;;11.1;6.2;;;;;;;8.16;76.13;;;;;
2023/11/08 16:47:11;;;;;;;11.1;6.2;;;;;;;7.97;76.74;;;;;
2023/11/08 16:58:11;;;;;;;11.1;6.2;;;;;;;8;76.43;;;;;
2023/11/08 17:08:10;;;;;;;8.8;4;;;;;;;8.05;76.2;;;;;
2023/11/08 17:19:11;;;;;;;8.8;4;;;;;;;8.02;75.78;;;;;
2023/11/08 17:30:10;;;;;;;8.8;4;;;;;;;8.03;75.04;;;;;
2023/11/08 17:40:11;;;;;;;8.6;4.4;;;;;;;8.06;74.58;;;;;
2023/11/08 17:51:10;;;;;;;8.6;4.4;;;;;;;8.2;73.77;;;;;
2023/11/08 18:02:10;;;;;;;8.6;4.4;;;;;;;8.32;73.81;;;;;
2023/11/08 18:13:10;;;;;;;9.2;3.5;;;;;;;8.38;73.35;;;;;
2023/11/08 18:23:10;;;;;;;9.2;3.5;;;;;;;8.38;72.79;;;;;
2023/11/08 18:33:10;;;;;;;9.2;3.5;;;;;;;8.44;73.02;;;;;
2023/11/08 18:44:10;;;;;;;10.5;5.4;;;;;;;8.5;72.35;;;;;
2023/11/08 18:54:10;;;;;;;10.5;5.4;;;;;;;8.59;72.39;;;;;
2023/11/08 19:04:12;;;;;;;10.5;5.4;;;;;;;8.63;72.62;;;;;
2023/11/08 19:14:10;;;;;;;11.2;6.1;;;;;;;8.52;73.25;;;;;
2023/11/08 19:24:10;;;;;;;11.2;6.1;;;;;;;8.35;74.58;;;;;
2023/11/08 19:34:10;;;;;;;11.2;6.1;;;;;;;8.35;74.97;;;;;
2023/11/08 19:44:10;;;;;;;12;6.1;;;;;;;8.28;75.62;;;;;
2023/11/08 19:55:10;;;;;;;12;6.1;;;;;;;8.27;76.04;;;;;
2023/11/08 20:06:10;;;;;;;9;5.1;;;;;;;8.26;76.25;;;;;
2023/11/08 20:17:10;;;;;;;9;5.1;;;;;;;8.34;74.95;;;;;
2023/11/08 20:27:10;;;;;;;9;5.1;;;;;;;8.41;73.84;;;;;
2023/11/08 20:38:10;;;;;;;8.1;3.4;;;;;;;8.45;72.31;;;;;
2023/11/08 20:48:10;;;;;;;8.1;3.4;;;;;;;8.51;72.06;;;;;
2023/11/08 20:59:10;;;;;;;8.1;3.4;;;;;;;8.6;72.14;;;;;
2023/11/08 21:09:10;;;;;;;5.6;2.8;;;;;;;8.64;71.53;;;;;
2023/11/08 21:20:10;;;;;;;5.6;2.8;;;;;;;8.64;71.41;;;;;
2023/11/08 21:31:10;;;;;;;5.6;2.8;;;;;;;8.64;71.85;;;;;
2023/11/08 21:41:10;;;;;;;6.3;3.1;;;;;;;8.62;72.03;;;;;
2023/11/08 21:52:10;;;;;;;6.3;3.1;;;;;;;8.56;71.15;;;;;
2023/11/08 22:03:11;;;;;;;6.3;3.1;;;;;;;8.64;71;;;;;
2023/11/08 22:14:10;;;;;;;7.2;2.9;;;;;;;8.66;70.79;;;;;
2023/11/08 22:25:10;;;;;;;7.2;2.9;;;;;;;8.64;70.53;;;;;
2023/11/08 22:35:10;;;;;;;7.2;2.9;;;;;;;8.62;71.27;;;;;
2023/11/08 22:45:10;;;;;;;4.9;1.9;;;;;;;8.63;71.29;;;;;
2023/11/08 22:56:10;;;;;;;4.9;1.9;;;;;;;8.49;72.07;;;;;
2023/11/08 23:06:10;;;;;;;5.9;3;;;;;;;8.48;72.12;;;;;
2023/11/08 23:16:10;;;;;;;5.9;3;;;;;;;8.31;72.97;;;;;
2023/11/08 23:26:10;;;;;;;5.9;3;;;;;;;8.2;72.95;;;;;
2023/11/08 23:37:10;;;;;;;5.8;2.8;;;;;;;8;73.74;;;;;
2023/11/08 23:47:11;;;;;;;5.8;2.8;;;;;;;7.79;74.24;;;;;
2023/11/08 23:58:10;;;;;;;5.8;2.8;;;;;;;7.53;74.46;;;;;
